Terminal Aerodrome Forecast
Issued by NWS Charleston, WV

Current Version | Previous Version | Graphics & Text | Print | Product List | Glossary On
Versions: 1 2 3 4 5 6 7 8 9 10 11 12 13 14 15 16 17 18 19 20 21 22 23 24 25 26 27 28 29
000
FTUS41 KRLX 270148 AAA
TAFHTS
TAF AMD
KHTS 270148Z 2702/2724 19005KT P6SM -SHRA SCT035 OVC050
     FM270400 20004KT P6SM SCT025 BKN045
     FM270900 17003KT P6SM BKN025
     FM271400 19008KT P6SM BKN040=

USA.gov is the U.S. government's official web portal to all federal, state and local government web resources and services.